createdAt,value
2019-05-23T00:00:03.591Z,2.57
2019-05-23T00:02:49.247Z,2.10
2019-05-23T00:05:30.506Z,2.87
2019-05-23T00:08:01.629Z,1.80
2019-05-23T00:10:33.743Z,2.30
2019-05-23T00:13:10.559Z,3.00
2019-05-23T00:15:42.007Z,2.10
2019-05-23T00:18:11.322Z,1.90
2019-05-23T00:20:41.371Z,2.13
2019-05-23T00:23:11.118Z,2.30
2019-05-23T00:25:40.633Z,1.90
2019-05-23T00:28:11.364Z,2.20
2019-05-23T00:30:58.759Z,2.00
2019-05-23T00:33:30.407Z,2.17
2019-05-23T00:36:00.467Z,2.00
2019-05-23T00:38:29.647Z,2.30
2019-05-23T00:40:59.986Z,2.10
2019-05-23T00:43:29.602Z,1.97
2019-05-23T00:46:00.137Z,1.97
2019-05-23T00:48:30.417Z,2.47
2019-05-23T00:50:59.671Z,2.60
2019-05-23T00:53:29.929Z,1.97
2019-05-23T00:56:00.007Z,2.17
2019-05-23T00:58:30.606Z,2.37
2019-05-23T01:01:00.477Z,2.57
2019-05-23T01:03:30.148Z,1.60
2019-05-23T01:06:00.248Z,2.20
2019-05-23T01:08:31.220Z,1.70
2019-05-23T01:11:00.817Z,2.30
2019-05-23T01:13:30.125Z,2.53
2019-05-23T01:16:00.298Z,2.50
2019-05-23T01:18:29.509Z,1.77
2019-05-23T01:21:14.241Z,2.17
2019-05-23T01:23:47.360Z,2.53
2019-05-23T01:26:16.917Z,2.43
2019-05-23T01:28:46.211Z,2.03
2019-05-23T01:31:19.205Z,2.23
2019-05-23T01:33:49.480Z,2.20
2019-05-23T01:36:18.710Z,2.23
2019-05-23T01:38:48.847Z,2.10
2019-05-23T01:41:17.932Z,1.50
2019-05-23T01:43:47.136Z,2.00
2019-05-23T01:46:16.253Z,1.97
2019-05-23T01:48:45.816Z,2.17
2019-05-23T01:51:15.276Z,1.73
2019-05-23T01:53:44.365Z,1.93
2019-05-23T01:56:13.825Z,1.63
2019-05-23T01:58:42.930Z,1.80
2019-05-23T02:01:12.541Z,1.93
2019-05-23T02:03:41.736Z,2.47
2019-05-23T02:06:11.241Z,2.03
2019-05-23T02:08:40.908Z,1.93
2019-05-23T02:11:10.151Z,2.20
2019-05-23T02:13:39.211Z,1.97
2019-05-23T02:16:08.418Z,1.83
2019-05-23T02:18:38.069Z,1.83
2019-05-23T02:21:07.646Z,1.80
2019-05-23T02:23:37.346Z,1.80
2019-05-23T02:26:07.205Z,2.17
2019-05-23T02:29:02.294Z,2.10
2019-05-23T02:31:32.657Z,1.90
2019-05-23T02:34:02.197Z,2.23
2019-05-23T02:36:32.635Z,2.07
2019-05-23T02:39:27.008Z,2.03
2019-05-23T02:42:01.887Z,1.80
2019-05-23T02:44:32.288Z,1.90
2019-05-23T02:47:21.720Z,1.80
2019-05-23T02:49:51.151Z,1.53
2019-05-23T02:52:34.904Z,1.93
2019-05-23T02:55:05.405Z,2.00
2019-05-23T02:57:35.308Z,1.97
2019-05-23T03:00:29.220Z,1.93
2019-05-23T03:03:02.970Z,1.80
2019-05-23T03:05:34.824Z,1.90
2019-05-23T03:08:05.052Z,2.00
2019-05-23T03:11:09.682Z,2.00
2019-05-23T03:13:38.769Z,2.00
2019-05-23T03:16:08.655Z,2.20
2019-05-23T03:18:42.193Z,1.83
2019-05-23T03:21:12.402Z,2.27
2019-05-23T03:23:43.563Z,1.83
2019-05-23T03:26:51.703Z,2.17
2019-05-23T03:29:21.445Z,1.90
2019-05-23T03:32:05.738Z,1.90
2019-05-23T03:34:36.410Z,1.80
2019-05-23T03:37:06.962Z,2.70
2019-05-23T03:39:36.157Z,1.70
2019-05-23T03:42:05.336Z,1.60
2019-05-23T03:44:34.551Z,2.20
2019-05-23T03:47:05.175Z,2.70
2019-05-23T03:49:35.283Z,1.73
2019-05-23T03:52:05.547Z,1.60
2019-05-23T03:54:36.252Z,1.83
2019-05-23T03:57:05.936Z,2.03
2019-05-23T03:59:35.031Z,1.80
2019-05-23T04:02:05.861Z,1.90
2019-05-23T04:04:35.384Z,1.60
2019-05-23T04:07:05.261Z,1.80
2019-05-23T04:09:34.428Z,1.80
2019-05-23T04:12:03.634Z,1.87
2019-05-23T04:14:33.832Z,2.10
2019-05-23T04:17:04.451Z,1.90
2019-05-23T04:19:33.615Z,1.80
2019-05-23T04:22:03.208Z,1.77
2019-05-23T04:24:32.365Z,1.70
2019-05-23T04:27:01.566Z,1.90
2019-05-23T04:29:30.798Z,1.73
2019-05-23T04:32:07.635Z,1.73
2019-05-23T04:34:30.964Z,1.50
2019-05-23T04:37:00.220Z,1.40
2019-05-23T04:39:29.547Z,2.00
2019-05-23T04:41:59.806Z,2.20
2019-05-23T04:44:29.708Z,2.00
2019-05-23T04:46:58.977Z,2.20
2019-05-23T04:49:28.415Z,3.17
2019-05-23T04:51:57.728Z,2.07
2019-05-23T04:54:27.134Z,2.20
2019-05-23T04:56:57.121Z,2.57
2019-05-23T04:59:26.560Z,2.63
2019-05-23T05:01:58.844Z,2.00
2019-05-23T05:04:29.643Z,1.63
2019-05-23T05:06:59.265Z,2.10
2019-05-23T05:09:32.418Z,1.90
2019-05-23T05:12:01.929Z,2.17
2019-05-23T05:14:31.432Z,2.70
2019-05-23T05:17:00.793Z,2.30
2019-05-23T05:19:30.614Z,2.33
2019-05-23T05:22:00.044Z,2.03
2019-05-23T05:24:29.185Z,2.53
2019-05-23T05:26:58.398Z,2.47
2019-05-23T05:29:27.614Z,2.23
2019-05-23T05:31:56.693Z,2.50
2019-05-23T05:34:26.089Z,2.30
2019-05-23T05:36:55.230Z,2.17
2019-05-23T05:39:24.687Z,2.13
2019-05-23T05:41:53.762Z,2.60
2019-05-23T05:44:23.024Z,2.53
2019-05-23T05:46:52.933Z,2.23
2019-05-23T05:49:22.530Z,2.20
2019-05-23T05:51:51.875Z,2.00
2019-05-23T05:54:21.781Z,2.10
2019-05-23T05:56:50.928Z,1.97
2019-05-23T05:59:20.025Z,2.07
2019-05-23T06:01:50.052Z,2.50
2019-05-23T06:04:19.313Z,2.97
2019-05-23T06:06:57.171Z,1.93
2019-05-23T06:09:28.987Z,2.50
2019-05-23T06:11:58.010Z,2.23
2019-05-23T06:14:27.883Z,2.13
2019-05-23T06:16:57.767Z,2.97
2019-05-23T06:19:27.226Z,2.43
2019-05-23T06:21:56.714Z,2.50
2019-05-23T06:24:41.554Z,2.70
2019-05-23T06:26:57.722Z,3.30
2019-05-23T06:29:26.888Z,2.47
2019-05-23T06:31:56.072Z,2.50
2019-05-23T06:34:25.758Z,3.07
2019-05-23T06:36:55.904Z,2.70
2019-05-23T06:39:25.472Z,3.60
2019-05-23T06:41:54.671Z,3.20
2019-05-23T06:44:24.082Z,2.70
2019-05-23T06:46:53.241Z,3.13
2019-05-23T06:49:22.474Z,2.20
2019-05-23T06:51:51.816Z,2.77
2019-05-23T06:54:20.971Z,2.83
2019-05-23T06:56:50.117Z,2.60
2019-05-23T06:59:19.231Z,2.77
2019-05-23T07:01:48.347Z,2.97
2019-05-23T07:04:19.099Z,2.63
2019-05-23T07:06:48.262Z,2.87
2019-05-23T07:09:18.441Z,2.80
2019-05-23T07:11:47.608Z,3.20
2019-05-23T07:14:17.239Z,3.00
2019-05-23T07:16:50.270Z,2.50
2019-05-23T07:19:17.504Z,2.80
2019-05-23T07:21:46.777Z,2.33
2019-05-23T07:24:16.531Z,2.53
2019-05-23T07:26:46.589Z,2.83
2019-05-23T07:29:15.775Z,2.50
2019-05-23T07:31:44.959Z,2.70
2019-05-23T07:34:14.157Z,2.33
2019-05-23T07:36:43.452Z,2.57
2019-05-23T07:39:12.619Z,2.43
2019-05-23T07:41:42.334Z,2.60
2019-05-23T07:44:11.923Z,2.60
2019-05-23T07:46:41.094Z,2.37
2019-05-23T07:49:10.743Z,2.90
2019-05-23T07:51:39.937Z,3.23
2019-05-23T07:54:17.915Z,2.57
2019-05-23T07:56:47.621Z,2.87
2019-05-23T07:59:16.761Z,2.33
2019-05-23T08:01:49.938Z,2.73
2019-05-23T08:04:21.784Z,2.30
2019-05-23T08:06:50.047Z,2.90
2019-05-23T08:09:19.923Z,2.90
2019-05-23T08:11:49.355Z,2.53
2019-05-23T08:14:18.529Z,2.63
2019-05-23T08:16:47.812Z,2.90
2019-05-23T08:19:19.611Z,3.03
2019-05-23T08:21:48.320Z,2.20
2019-05-23T08:24:18.163Z,3.17
2019-05-23T08:26:47.809Z,2.70
2019-05-23T08:29:26.605Z,2.80
2019-05-23T08:31:48.123Z,2.70
2019-05-23T08:34:17.226Z,2.53
2019-05-23T08:36:46.367Z,2.67
2019-05-23T08:39:16.125Z,2.90
2019-05-23T08:41:45.351Z,2.23
2019-05-23T08:44:14.410Z,2.40
2019-05-23T08:46:43.808Z,2.23
2019-05-23T08:49:12.963Z,2.77
2019-05-23T08:51:42.211Z,2.93
2019-05-23T08:54:11.319Z,3.00
2019-05-23T08:56:40.487Z,3.23
2019-05-23T08:59:10.888Z,2.50
2019-05-23T09:01:40.028Z,2.70
2019-05-23T09:04:09.204Z,3.07
2019-05-23T09:06:39.160Z,2.90
2019-05-23T09:09:27.852Z,2.63
2019-05-23T09:11:40.511Z,3.20
2019-05-23T09:14:09.760Z,3.20
2019-05-23T09:16:39.366Z,3.23
2019-05-23T09:19:08.712Z,3.10
2019-05-23T09:21:38.945Z,3.23
2019-05-23T09:24:08.661Z,2.80
2019-05-23T09:26:38.198Z,3.03
2019-05-23T09:29:07.675Z,3.10
2019-05-23T09:31:37.333Z,3.73
2019-05-23T09:34:06.535Z,2.97
2019-05-23T09:36:35.628Z,2.70
2019-05-23T09:39:07.609Z,3.10
2019-05-23T09:41:36.966Z,2.73
2019-05-23T09:44:06.261Z,3.10
2019-05-23T09:46:35.310Z,2.63
2019-05-23T09:49:05.494Z,2.60
2019-05-23T09:51:34.653Z,2.43
2019-05-23T09:54:03.891Z,2.47
2019-05-23T09:56:33.958Z,2.07
2019-05-23T09:59:03.122Z,2.80
2019-05-23T10:01:32.564Z,2.53
2019-05-23T10:04:01.756Z,2.77
2019-05-23T10:06:30.945Z,2.43
2019-05-23T10:09:00.138Z,2.90
2019-05-23T10:11:29.299Z,2.30
2019-05-23T10:13:58.666Z,2.77
2019-05-23T10:16:28.415Z,2.73
2019-05-23T10:18:57.894Z,2.50
2019-05-23T10:21:27.114Z,3.00
2019-05-23T10:23:56.263Z,2.73
2019-05-23T10:26:26.339Z,2.80
2019-05-23T10:28:55.497Z,2.70
2019-05-23T10:31:25.113Z,2.10
2019-05-23T10:33:54.118Z,2.13
2019-05-23T10:36:23.285Z,2.10
2019-05-23T10:38:52.416Z,1.93
2019-05-23T10:41:21.613Z,1.70
2019-05-23T10:43:50.772Z,2.10
2019-05-23T10:46:19.930Z,2.30
2019-05-23T10:48:49.639Z,2.30
2019-05-23T10:51:18.778Z,2.00
2019-05-23T10:53:47.893Z,2.00
2019-05-23T10:56:20.620Z,2.43
2019-05-23T10:58:48.380Z,2.17
2019-05-23T11:01:17.586Z,2.13
2019-05-23T11:03:46.739Z,2.23
2019-05-23T11:06:17.079Z,1.63
2019-05-23T11:08:46.494Z,1.80
2019-05-23T11:11:15.678Z,2.23
2019-05-23T11:13:45.376Z,2.03
2019-05-23T11:16:14.600Z,2.43
2019-05-23T11:18:43.873Z,2.00
2019-05-23T11:21:13.090Z,2.00
2019-05-23T11:23:46.421Z,1.93
2019-05-23T11:26:16.011Z,2.10
2019-05-23T11:28:45.516Z,1.80
2019-05-23T11:31:15.152Z,2.03
2019-05-23T11:33:44.257Z,1.80
2019-05-23T11:36:13.720Z,2.77
2019-05-23T11:38:42.908Z,2.13
2019-05-23T11:41:12.287Z,2.67
2019-05-23T11:43:42.242Z,2.00
2019-05-23T11:46:21.341Z,2.23
2019-05-23T11:48:51.288Z,2.13
2019-05-23T11:51:25.214Z,1.90
2019-05-23T11:54:06.709Z,2.27
2019-05-23T11:56:22.999Z,2.17
2019-05-23T11:58:52.210Z,2.07
2019-05-23T12:01:34.890Z,1.90
2019-05-23T12:04:08.643Z,2.20
2019-05-23T12:07:06.244Z,1.60
2019-05-23T12:09:35.736Z,2.10
2019-05-23T12:12:05.073Z,2.17
2019-05-23T12:14:34.583Z,2.43
2019-05-23T12:17:04.038Z,1.97
2019-05-23T12:19:33.250Z,1.80
2019-05-23T12:22:02.440Z,1.93
2019-05-23T12:24:35.222Z,1.90
2019-05-23T12:27:02.767Z,2.40
2019-05-23T12:29:31.888Z,2.03
2019-05-23T12:32:01.259Z,1.97
2019-05-23T12:34:30.503Z,2.27
2019-05-23T12:37:16.972Z,2.53
2019-05-23T12:39:30.580Z,2.70
2019-05-23T12:41:59.730Z,2.43
2019-05-23T12:44:29.022Z,2.03
2019-05-23T12:46:59.250Z,1.77
2019-05-23T12:49:42.090Z,2.30
2019-05-23T12:52:12.674Z,2.60
2019-05-23T12:54:41.829Z,1.97
2019-05-23T12:57:11.119Z,1.80
2019-05-23T12:59:40.294Z,2.57
2019-05-23T13:02:12.900Z,2.60
2019-05-23T13:04:42.632Z,2.77
2019-05-23T13:07:12.439Z,2.30
2019-05-23T13:09:41.706Z,2.53
2019-05-23T13:12:10.884Z,2.27
2019-05-23T13:14:40.039Z,1.97
2019-05-23T13:17:09.210Z,2.33
2019-05-23T13:19:38.630Z,2.47
2019-05-23T13:22:09.469Z,2.30
2019-05-23T13:24:52.168Z,2.47
2019-05-23T13:27:09.454Z,2.43
2019-05-23T13:29:38.618Z,2.07
2019-05-23T13:32:07.695Z,2.20
2019-05-23T13:34:37.749Z,1.87
2019-05-23T13:37:08.510Z,2.20
2019-05-23T13:39:37.816Z,2.07
2019-05-23T13:42:06.970Z,2.00
2019-05-23T13:44:36.432Z,2.30
2019-05-23T13:47:05.833Z,2.43
2019-05-23T13:49:35.059Z,2.43
2019-05-23T13:52:04.278Z,2.03
2019-05-23T13:54:36.487Z,2.17
2019-05-23T13:57:06.096Z,1.87
2019-05-23T13:59:35.439Z,2.03
2019-05-23T14:02:06.150Z,2.37
2019-05-23T14:04:35.960Z,2.33
2019-05-23T14:07:06.809Z,2.10
2019-05-23T14:09:36.276Z,1.87
2019-05-23T14:12:20.568Z,2.60
2019-05-23T14:14:36.453Z,2.37
2019-05-23T14:17:33.559Z,1.90
2019-05-23T14:20:02.726Z,2.40
2019-05-23T14:22:33.357Z,2.47
2019-05-23T14:25:02.530Z,2.30
2019-05-23T14:27:42.209Z,2.57
2019-05-23T14:30:30.371Z,2.03
2019-05-23T14:33:01.099Z,2.30
2019-05-23T14:35:31.413Z,2.50
2019-05-23T14:38:02.596Z,2.10
2019-05-23T14:40:31.874Z,1.77
2019-05-23T14:43:17.901Z,1.83
2019-05-23T14:45:54.695Z,1.93
2019-05-23T14:48:34.156Z,2.13
2019-05-23T14:51:20.747Z,2.13
2019-05-23T14:53:54.007Z,1.83
2019-05-23T14:56:24.076Z,1.93
2019-05-23T14:58:53.338Z,1.80
2019-05-23T15:01:24.940Z,2.40
2019-05-23T15:03:54.081Z,1.70
2019-05-23T15:06:23.868Z,2.20
2019-05-23T15:08:52.980Z,2.00
2019-05-23T15:11:22.286Z,1.93
2019-05-23T15:13:51.753Z,1.97
2019-05-23T15:16:20.902Z,1.80
2019-05-23T15:18:50.077Z,1.67
2019-05-23T15:21:19.618Z,2.00
2019-05-23T15:23:48.694Z,1.60
2019-05-23T15:26:22.966Z,2.13
2019-05-23T15:28:48.998Z,1.93
2019-05-23T15:31:19.879Z,1.63
2019-05-23T15:33:49.224Z,1.90
2019-05-23T15:36:18.454Z,1.90
2019-05-23T15:38:47.605Z,1.70
2019-05-23T15:41:16.748Z,1.60
2019-05-23T15:43:45.902Z,1.90
2019-05-23T15:46:15.075Z,1.73
2019-05-23T15:48:45.008Z,1.93
2019-05-23T15:51:17.459Z,2.00
2019-05-23T15:54:14.655Z,1.73
2019-05-23T15:56:49.030Z,1.70
2019-05-23T15:59:32.006Z,1.83
2019-05-23T16:02:25.911Z,2.00
2019-05-23T16:04:57.873Z,1.87
2019-05-23T16:07:27.520Z,2.10
2019-05-23T16:09:56.661Z,2.47
2019-05-23T16:12:28.926Z,1.70
2019-05-23T16:14:58.022Z,1.90
2019-05-23T16:17:27.183Z,1.70
2019-05-23T16:19:56.286Z,1.60
2019-05-23T16:22:25.348Z,1.80
2019-05-23T16:24:54.550Z,1.70
2019-05-23T16:27:23.790Z,1.97
2019-05-23T16:29:52.975Z,1.73
2019-05-23T16:32:22.155Z,2.10
2019-05-23T16:34:51.334Z,2.43
2019-05-23T16:37:20.996Z,2.13
2019-05-23T16:39:51.183Z,2.97
2019-05-23T16:42:20.784Z,2.50
2019-05-23T16:44:49.930Z,2.70
2019-05-23T16:47:19.431Z,2.87
2019-05-23T16:49:48.603Z,2.10
2019-05-23T16:52:17.785Z,2.40
2019-05-23T16:54:48.504Z,2.50
2019-05-23T16:57:32.784Z,2.17
2019-05-23T17:00:20.451Z,2.13
2019-05-23T17:02:58.619Z,2.83
2019-05-23T17:05:52.807Z,2.07
2019-05-23T17:08:45.707Z,2.23
2019-05-23T17:11:23.871Z,2.43
2019-05-23T17:13:59.068Z,2.13
2019-05-23T17:16:49.980Z,1.83
2019-05-23T17:19:50.154Z,2.13
2019-05-23T17:22:38.222Z,2.33
2019-05-23T17:25:18.918Z,1.93
2019-05-23T17:27:54.637Z,2.07
2019-05-23T17:30:35.830Z,1.70
2019-05-23T17:33:07.034Z,1.83
2019-05-23T17:35:36.848Z,2.10
2019-05-23T17:38:06.028Z,2.07
2019-05-23T17:40:35.208Z,2.00
2019-05-23T17:43:04.382Z,2.13
2019-05-23T17:45:33.878Z,1.87
2019-05-23T17:48:03.763Z,1.63
2019-05-23T17:50:34.910Z,2.00
2019-05-23T17:53:04.448Z,2.03
2019-05-23T17:55:34.101Z,2.00
2019-05-23T17:58:03.295Z,2.40
2019-05-23T18:00:40.734Z,3.20
2019-05-23T18:03:10.387Z,2.90
2019-05-23T18:05:39.616Z,3.20
2019-05-23T18:08:10.094Z,2.97
2019-05-23T18:10:45.331Z,3.03
2019-05-23T18:13:11.030Z,2.70
2019-05-23T18:15:40.839Z,2.90
2019-05-23T18:18:10.054Z,2.67
2019-05-23T18:20:39.728Z,3.27
2019-05-23T18:23:09.608Z,2.13
2019-05-23T18:25:38.779Z,3.30
2019-05-23T18:28:09.465Z,3.00
2019-05-23T18:30:46.969Z,2.83
2019-05-23T18:33:16.593Z,2.67
2019-05-23T18:35:45.689Z,3.00
2019-05-23T18:38:15.249Z,3.03
2019-05-23T18:41:00.014Z,3.33
2019-05-23T18:43:16.149Z,3.37
2019-05-23T18:45:45.813Z,2.87
2019-05-23T18:48:15.134Z,3.43
2019-05-23T18:50:44.571Z,3.37
2019-05-23T18:53:13.734Z,2.90
2019-05-23T18:55:45.056Z,4.00
2019-05-23T18:58:18.263Z,3.20
2019-05-23T19:01:09.607Z,2.53
2019-05-23T19:03:39.089Z,3.20
2019-05-23T19:06:08.344Z,3.00
2019-05-23T19:08:37.745Z,3.87
2019-05-23T19:11:20.030Z,3.70
2019-05-23T19:13:38.101Z,3.27
2019-05-23T19:16:07.296Z,3.53
2019-05-23T19:18:38.248Z,2.80
2019-05-23T19:21:09.998Z,3.50
2019-05-23T19:23:39.511Z,3.67
2019-05-23T19:26:09.474Z,3.17
2019-05-23T19:28:39.359Z,3.23
2019-05-23T19:31:09.329Z,4.03
2019-05-23T19:33:39.602Z,5.20
2019-05-23T19:36:10.962Z,3.30
2019-05-23T19:38:40.406Z,3.87
2019-05-23T19:41:10.730Z,3.77
2019-05-23T19:43:40.187Z,4.40
2019-05-23T19:46:09.389Z,3.77
2019-05-23T19:48:39.704Z,4.93
2019-05-23T19:51:10.002Z,4.73
2019-05-23T19:53:39.980Z,4.00
2019-05-23T19:56:10.340Z,4.47
2019-05-23T19:58:39.496Z,4.23
2019-05-23T20:01:09.636Z,3.63
2019-05-23T20:03:38.808Z,3.70
2019-05-23T20:06:09.649Z,3.83
2019-05-23T20:08:38.928Z,3.87
2019-05-23T20:11:08.094Z,3.20
2019-05-23T20:13:39.238Z,3.87
2019-05-23T20:16:08.476Z,3.03
2019-05-23T20:18:37.838Z,3.57
2019-05-23T20:21:07.004Z,3.10
2019-05-23T20:23:36.130Z,3.33
2019-05-23T20:26:08.132Z,3.23
2019-05-23T20:28:39.781Z,3.20
2019-05-23T20:32:07.892Z,3.80
2019-05-23T20:43:02.709Z,3.47
2019-05-23T20:53:38.601Z,3.27
2019-05-23T20:55:59.531Z,3.50
2019-05-23T20:58:28.886Z,3.07
2019-05-23T21:01:17.216Z,3.03
2019-05-23T21:03:47.155Z,3.13
2019-05-23T21:06:17.078Z,2.67
2019-05-23T21:08:46.279Z,2.80
2019-05-23T21:11:15.785Z,2.63
2019-05-23T21:13:44.982Z,2.60
2019-05-23T21:16:14.428Z,2.73
2019-05-23T21:18:43.594Z,2.70
2019-05-23T21:21:12.873Z,3.17
2019-05-23T21:23:42.087Z,3.30
2019-05-23T21:26:11.317Z,2.33
2019-05-23T21:28:43.158Z,2.30
2019-05-23T21:31:17.898Z,2.53
2019-05-23T21:33:47.144Z,2.47
2019-05-23T21:36:16.203Z,2.53
2019-05-23T21:38:45.375Z,3.10
2019-05-23T21:41:14.712Z,2.63
2019-05-23T21:43:44.879Z,2.43
2019-05-23T21:46:14.103Z,3.07
2019-05-23T21:48:43.294Z,2.63
2019-05-23T21:51:12.459Z,2.33
2019-05-23T21:53:44.930Z,2.17
2019-05-23T21:56:14.015Z,2.43
2019-05-23T21:58:43.283Z,2.23
2019-05-23T22:01:31.897Z,2.53
2019-05-23T22:04:32.186Z,2.30
2019-05-23T22:07:06.056Z,2.43
2019-05-23T22:09:35.740Z,2.70
2019-05-23T22:12:06.479Z,2.77
2019-05-23T22:14:36.763Z,2.20
2019-05-23T22:17:06.411Z,2.50
2019-05-23T22:19:36.202Z,2.23
2019-05-23T22:22:05.461Z,2.20
2019-05-23T22:24:34.782Z,2.23
2019-05-23T22:27:04.042Z,2.37
2019-05-23T22:29:33.203Z,2.37
2019-05-23T22:32:02.438Z,2.93
2019-05-23T22:34:40.561Z,2.60
2019-05-23T22:37:24.494Z,2.73
2019-05-23T22:39:53.651Z,2.70
2019-05-23T22:42:23.685Z,2.40
2019-05-23T22:44:53.213Z,2.67
2019-05-23T22:47:22.820Z,2.57
2019-05-23T22:49:51.907Z,2.60
2019-05-23T22:52:20.993Z,2.27
2019-05-23T22:54:50.203Z,2.60
2019-05-23T22:57:19.430Z,2.87
2019-05-23T22:59:48.546Z,2.57
2019-05-23T23:02:18.297Z,2.43
2019-05-23T23:04:47.375Z,2.37
2019-05-23T23:07:16.980Z,2.87
2019-05-23T23:09:46.088Z,2.53
2019-05-23T23:12:15.249Z,2.80
2019-05-23T23:14:44.332Z,2.73
2019-05-23T23:17:13.464Z,2.50
2019-05-23T23:19:42.554Z,2.27
2019-05-23T23:22:11.655Z,2.87
2019-05-23T23:24:40.798Z,2.90
2019-05-23T23:27:10.000Z,2.40
2019-05-23T23:29:39.139Z,2.87
2019-05-23T23:32:09.058Z,2.73
2019-05-23T23:34:38.232Z,2.37
2019-05-23T23:37:07.391Z,2.13
2019-05-23T23:39:37.351Z,2.53
2019-05-23T23:42:07.423Z,3.20
2019-05-23T23:44:35.639Z,2.77
2019-05-23T23:47:23.163Z,2.60
2019-05-23T23:50:10.069Z,2.57
2019-05-23T23:52:57.167Z,2.40
2019-05-23T23:55:43.989Z,2.20
2019-05-23T23:58:12.206Z,2.53
